Time;durP1;ratioP1;P1;durP2;ratioP2;P2;SDS_P1;SDS_P2;PMS_P1;PMS_P2;Temp;Humidity;BMP_temperature;BMP_pressure;BME280_temperature;BME280_humidity;BME280_pressure;Samples;Min_cycle;Max_cycle;Signal;HPM_P1;HPM_P2
2023/10/16 00:00:47;;;;;;;4.40;1.00;;;9.90;99.90;;;;;;4993802;28;20046;-91
2023/10/16 00:03:14;;;;;;;6.00;0.90;;;10.00;99.90;;;;;;4993247;28;20042;-90
2023/10/16 00:05:45;;;;;;;5.13;0.90;;;10.00;99.90;;;;;;4994651;28;20042;-91
2023/10/16 00:08:16;;;;;;;3.58;0.47;;;9.90;99.90;;;;;;4993054;28;20077;-90
2023/10/16 00:10:52;;;;;;;4.90;0.57;;;9.80;99.90;;;;;;4993004;28;20088;-88
2023/10/16 00:13:23;;;;;;;7.18;0.57;;;9.80;99.90;;;;;;4993330;28;20614;-87
2023/10/16 00:15:49;;;;;;;3.03;0.80;;;9.80;99.90;;;;;;4993069;28;20050;-88
2023/10/16 00:18:22;;;;;;;4.55;0.55;;;9.80;99.90;;;;;;4992816;28;20057;-88
2023/10/16 00:20:49;;;;;;;2.50;0.22;;;9.80;99.90;;;;;;4993200;28;20100;-87
2023/10/16 00:23:15;;;;;;;1.80;0.43;;;9.80;99.90;;;;;;4992742;28;20078;-88
2023/10/16 00:25:43;;;;;;;8.23;0.85;;;9.80;99.90;;;;;;4996018;28;20541;-87
2023/10/16 00:28:10;;;;;;;3.95;0.65;;;9.80;99.90;;;;;;4996813;28;20089;-89
2023/10/16 00:30:38;;;;;;;6.50;0.52;;;9.70;99.90;;;;;;4996756;28;20043;-88
2023/10/16 00:33:08;;;;;;;6.07;0.60;;;9.80;99.90;;;;;;4996549;28;20051;-89
2023/10/16 00:35:34;;;;;;;8.25;0.65;;;9.80;99.90;;;;;;4996780;28;20608;-89
2023/10/16 00:38:03;;;;;;;6.68;0.70;;;9.70;99.90;;;;;;4996964;28;20061;-89
2023/10/16 00:40:35;;;;;;;7.85;0.60;;;9.70;99.90;;;;;;4997001;28;20469;-88
2023/10/16 00:43:19;;;;;;;3.10;0.47;;;9.80;99.90;;;;;;4996696;28;20082;-88
2023/10/16 00:45:49;;;;;;;7.32;0.70;;;9.80;99.90;;;;;;4996874;28;20051;-88
2023/10/16 00:48:19;;;;;;;5.60;0.40;;;10.00;99.90;;;;;;4997099;28;20042;-90
2023/10/16 00:50:48;;;;;;;3.15;0.95;;;10.10;99.90;;;;;;4996646;28;20050;-89
2023/10/16 00:53:18;;;;;;;6.30;1.00;;;10.10;99.90;;;;;;4996456;28;20050;-88
2023/10/16 00:55:44;;;;;;;6.68;1.17;;;10.00;99.90;;;;;;4996757;28;20390;-91
2023/10/16 00:58:10;;;;;;;3.90;0.40;;;10.00;99.90;;;;;;4996432;28;20046;-91
2023/10/16 01:00:37;;;;;;;9.63;0.70;;;9.90;99.90;;;;;;4996782;28;20042;-90
2023/10/16 01:03:05;;;;;;;3.40;0.45;;;9.80;99.90;;;;;;4996666;28;20050;-90
2023/10/16 01:05:39;;;;;;;5.70;1.15;;;9.70;99.90;;;;;;4996223;28;20042;-90
2023/10/16 01:08:07;;;;;;;3.17;0.43;;;9.60;99.90;;;;;;4997933;28;20085;-91
2023/10/16 01:10:40;;;;;;;4.65;0.50;;;9.60;99.90;;;;;;4995969;28;20125;-91
2023/10/16 01:13:11;;;;;;;3.28;0.38;;;9.60;99.90;;;;;;4996133;28;20042;-90
2023/10/16 01:15:43;;;;;;;4.07;0.50;;;9.50;99.90;;;;;;4996365;28;20054;-89
2023/10/16 01:18:11;;;;;;;1.55;0.70;;;9.50;99.90;;;;;;4996017;28;20050;-88
2023/10/16 01:20:38;;;;;;;7.53;0.80;;;9.50;99.90;;;;;;4996195;28;20391;-88
2023/10/16 01:23:07;;;;;;;7.85;1.25;;;9.50;99.90;;;;;;4995860;28;20129;-90
2023/10/16 01:25:32;;;;;;;5.57;1.20;;;9.60;99.90;;;;;;4997290;28;20047;-89
2023/10/16 01:27:58;;;;;;;9.50;0.60;;;9.80;99.90;;;;;;4996637;28;20046;-90
2023/10/16 01:30:24;;;;;;;5.70;0.60;;;9.90;99.90;;;;;;4995928;28;20399;-88
2023/10/16 01:32:50;;;;;;;2.92;0.60;;;9.90;99.90;;;;;;4995425;28;20093;-89
2023/10/16 01:35:18;;;;;;;4.85;0.98;;;10.00;99.90;;;;;;4995461;28;20050;-91
2023/10/16 01:37:46;;;;;;;3.25;0.70;;;10.00;99.90;;;;;;4995532;28;20100;-90
2023/10/16 01:40:25;;;;;;;7.38;0.80;;;10.00;99.90;;;;;;4996252;28;20051;-89
2023/10/16 01:42:55;;;;;;;3.67;0.88;;;10.10;99.90;;;;;;4995509;28;20057;-90
2023/10/16 01:45:21;;;;;;;11.15;0.82;;;10.10;99.90;;;;;;4995803;28;20442;-91
2023/10/16 01:47:50;;;;;;;4.72;0.70;;;10.10;99.90;;;;;;4995589;28;20042;-88
2023/10/16 01:50:21;;;;;;;4.80;0.50;;;10.10;99.90;;;;;;4995430;28;20061;-92
2023/10/16 01:52:48;;;;;;;4.03;0.60;;;10.20;99.90;;;;;;4995398;28;20085;-89
2023/10/16 01:55:16;;;;;;;5.03;0.43;;;10.20;99.90;;;;;;4995686;28;20461;-91
2023/10/16 01:57:47;;;;;;;3.47;0.40;;;10.20;99.90;;;;;;4995715;28;20050;-89
2023/10/16 02:00:18;;;;;;;5.18;0.50;;;10.20;99.90;;;;;;4995700;28;20038;-92
2023/10/16 02:02:45;;;;;;;7.30;0.98;;;10.20;99.90;;;;;;4996145;28;20125;-94
2023/10/16 02:05:13;;;;;;;4.60;0.60;;;10.20;99.90;;;;;;4995879;28;20047;-91
2023/10/16 02:07:42;;;;;;;4.63;0.68;;;10.20;99.90;;;;;;4995824;28;20473;-93
2023/10/16 02:10:14;;;;;;;7.78;0.52;;;10.20;99.90;;;;;;4995962;28;20082;-91
2023/10/16 02:12:40;;;;;;;6.18;0.60;;;10.20;99.90;;;;;;4996011;28;20060;-94
2023/10/16 02:15:08;;;;;;;2.25;0.35;;;10.20;99.90;;;;;;4995543;28;20121;-92
2023/10/16 02:17:37;;;;;;;2.15;0.70;;;10.10;99.90;;;;;;4995426;28;20047;-91
2023/10/16 02:20:11;;;;;;;4.93;1.00;;;10.10;99.90;;;;;;4995607;28;20077;-92
2023/10/16 02:22:38;;;;;;;6.85;1.27;;;10.20;99.90;;;;;;4995927;28;20050;-91
2023/10/16 02:25:08;;;;;;;10.18;0.77;;;10.30;99.90;;;;;;4996708;28;20125;-93
2023/10/16 02:27:35;;;;;;;6.75;0.85;;;10.30;99.90;;;;;;4995687;28;20401;-91
2023/10/16 02:30:20;;;;;;;8.88;2.08;;;10.40;99.90;;;;;;4995936;28;20506;-90
2023/10/16 02:32:46;;;;;;;7.60;0.75;;;10.30;99.90;;;;;;4996444;28;20054;-91
2023/10/16 02:35:13;;;;;;;9.13;1.08;;;10.40;99.90;;;;;;4996098;28;20077;-90
2023/10/16 02:37:42;;;;;;;3.75;1.38;;;10.40;99.90;;;;;;4995158;28;20050;-94
2023/10/16 02:40:10;;;;;;;5.47;1.80;;;10.30;99.90;;;;;;4994854;28;20478;-91
2023/10/16 02:42:39;;;;;;;6.72;1.20;;;10.30;99.90;;;;;;4994326;28;20498;-90
2023/10/16 02:45:23;;;;;;;7.85;1.00;;;10.30;99.90;;;;;;4995294;28;20129;-93
2023/10/16 02:47:49;;;;;;;5.28;0.73;;;10.40;99.90;;;;;;4995128;28;20065;-93
2023/10/16 02:50:15;;;;;;;2.70;0.47;;;10.40;99.90;;;;;;4996582;28;20046;-91
2023/10/16 02:52:41;;;;;;;6.93;0.60;;;10.40;99.90;;;;;;4995983;28;20434;-91
2023/10/16 02:55:07;;;;;;;7.95;1.42;;;10.40;99.90;;;;;;4995355;28;20498;-93
2023/10/16 02:57:33;;;;;;;4.88;0.82;;;10.40;99.90;;;;;;4994697;28;20494;-94
2023/10/16 02:59:58;;;;;;;9.23;0.75;;;10.40;99.90;;;;;;4995291;28;20050;-94
2023/10/16 03:02:27;;;;;;;6.10;0.85;;;10.40;99.90;;;;;;4994462;28;20502;-92
2023/10/16 03:04:54;;;;;;;5.78;1.00;;;10.40;99.90;;;;;;4994144;28;20058;-91
2023/10/16 03:07:20;;;;;;;4.97;0.82;;;10.40;99.90;;;;;;4996233;28;20490;-92
2023/10/16 03:09:49;;;;;;;7.72;1.30;;;10.30;99.90;;;;;;4995500;28;20084;-93
2023/10/16 03:12:15;;;;;;;5.82;0.57;;;10.40;99.90;;;;;;4994803;28;20046;-92
2023/10/16 03:15:01;;;;;;;8.30;0.80;;;10.30;99.90;;;;;;4994427;28;20050;-93
2023/10/16 03:17:34;;;;;;;7.45;0.80;;;10.30;99.90;;;;;;4994267;28;20109;-91
2023/10/16 03:20:06;;;;;;;4.53;0.57;;;10.30;99.90;;;;;;4994671;28;20487;-95
2023/10/16 03:22:32;;;;;;;4.45;0.90;;;10.30;99.90;;;;;;4995830;28;20089;-91
2023/10/16 03:24:59;;;;;;;9.13;1.08;;;10.40;99.90;;;;;;4994568;28;20064;-91
2023/10/16 03:27:31;;;;;;;6.35;0.77;;;10.40;99.90;;;;;;4995134;28;20522;-89
2023/10/16 03:29:58;;;;;;;4.50;0.88;;;10.50;99.90;;;;;;4993976;28;20042;-90
2023/10/16 03:32:24;;;;;;;6.22;0.90;;;10.40;99.90;;;;;;4994551;28;20055;-94
2023/10/16 03:34:51;;;;;;;6.30;0.98;;;10.50;99.90;;;;;;4993704;28;20414;-91
2023/10/16 03:37:18;;;;;;;7.07;1.10;;;10.40;99.90;;;;;;4993703;28;20042;-91
2023/10/16 03:39:44;;;;;;;5.22;0.77;;;10.40;99.90;;;;;;4993660;28;20093;-93
2023/10/16 03:42:10;;;;;;;5.80;0.50;;;10.40;99.90;;;;;;4994086;28;20054;-93
2023/10/16 03:44:41;;;;;;;8.05;0.95;;;10.40;99.90;;;;;;4993779;28;20486;-88
2023/10/16 03:47:07;;;;;;;7.85;1.00;;;10.50;99.90;;;;;;4993790;28;20065;-90
2023/10/16 03:49:33;;;;;;;5.97;1.33;;;10.50;99.90;;;;;;4993712;28;20043;-91
2023/10/16 03:52:00;;;;;;;7.90;0.93;;;10.60;99.90;;;;;;4994631;28;20054;-95
2023/10/16 03:54:34;;;;;;;6.00;0.65;;;10.50;99.90;;;;;;4996127;28;20053;-95
2023/10/16 03:57:01;;;;;;;2.13;0.55;;;10.50;99.90;;;;;;4996475;28;20415;-92
2023/10/16 03:59:30;;;;;;;4.75;0.73;;;10.60;99.90;;;;;;4995989;28;20049;-93
2023/10/16 04:01:56;;;;;;;5.55;0.75;;;10.50;99.90;;;;;;4995039;28;20078;-94
2023/10/16 04:04:25;;;;;;;4.25;0.90;;;10.50;99.90;;;;;;4994520;28;20546;-92
2023/10/16 04:06:56;;;;;;;6.00;0.70;;;10.50;99.90;;;;;;4994041;28;20082;-94
2023/10/16 04:09:29;;;;;;;6.95;1.10;;;10.50;99.90;;;;;;4994064;28;20046;-93
2023/10/16 04:11:56;;;;;;;2.42;0.30;;;10.50;99.90;;;;;;4993921;28;20050;-94
2023/10/16 04:14:44;;;;;;;5.63;0.85;;;10.50;99.90;;;;;;4993662;28;20146;-94
2023/10/16 04:17:11;;;;;;;3.40;0.40;;;10.50;99.90;;;;;;4993201;28;20054;-95
2023/10/16 04:19:52;;;;;;;3.70;0.38;;;10.50;99.90;;;;;;4993382;28;20129;-93
2023/10/16 04:22:18;;;;;;;4.85;0.50;;;10.50;99.90;;;;;;4993088;28;20394;-90
2023/10/16 04:24:44;;;;;;;6.32;0.50;;;10.40;99.90;;;;;;4993441;28;20046;-93
2023/10/16 04:29:46;;;;;;;5.50;0.70;;;10.40;99.90;;;;;;4993190;28;20082;-92
2023/10/16 04:32:37;;;;;;;5.50;0.90;;;10.40;99.90;;;;;;4992943;28;20494;-91
2023/10/16 04:35:27;;;;;;;5.72;0.88;;;10.30;99.90;;;;;;4992935;28;20062;-91
2023/10/16 04:37:54;;;;;;;3.67;0.45;;;10.40;99.90;;;;;;4993344;28;20513;-90
2023/10/16 04:43:13;;;;;;;2.85;1.00;;;10.40;99.90;;;;;;4993226;28;20046;-91
2023/10/16 04:45:59;;;;;;;5.75;0.80;;;10.40;99.90;;;;;;4992954;28;20042;-91
2023/10/16 04:51:38;;;;;;;12.90;0.98;;;10.40;99.90;;;;;;4956435;28;20051;-90
2023/10/16 04:54:27;;;;;;;9.00;0.80;;;10.40;99.90;;;;;;4987710;28;20120;-90
2023/10/16 04:57:37;;;;;;;7.82;1.20;;;10.40;99.90;;;;;;4993085;28;20056;-92
2023/10/16 05:00:12;;;;;;;9.95;0.85;;;10.40;99.90;;;;;;5050110;23;20053;-90
2023/10/16 05:02:44;;;;;;;5.68;1.48;;;10.40;99.90;;;;;;5015489;28;20058;-89
2023/10/16 05:07:53;;;;;;;4.47;0.93;;;10.50;99.90;;;;;;5015612;28;20049;-93
2023/10/16 05:16:27;;;;;;;6.43;1.35;;;10.40;99.90;;;;;;5019358;28;20052;-90
2023/10/16 05:18:43;;;;;;;7.25;1.25;;;10.30;99.90;;;;;;5018881;28;20481;-93
2023/10/16 06:14:09;;;;;;;8.07;1.40;;;10.30;99.90;;;;;;5018737;28;20036;-91
2023/10/16 06:16:17;;;;;;;9.40;1.05;;;10.60;99.90;;;;;;5017465;28;20087;-92
2023/10/16 06:18:48;;;;;;;8.43;1.13;;;10.60;99.90;;;;;;5017855;28;20132;-91
2023/10/16 06:21:14;;;;;;;6.95;1.30;;;10.60;99.90;;;;;;5017904;28;20128;-93
2023/10/16 06:23:48;;;;;;;6.70;1.23;;;10.70;99.90;;;;;;5017199;28;20084;-95
2023/10/16 06:26:18;;;;;;;10.13;1.23;;;10.60;99.90;;;;;;5017526;28;20489;-90
2023/10/16 06:28:47;;;;;;;4.93;1.08;;;10.60;99.90;;;;;;5017127;28;20124;-88
2023/10/16 06:31:35;;;;;;;5.68;0.93;;;10.60;99.90;;;;;;5017518;28;20048;-90
2023/10/16 06:34:05;;;;;;;6.97;1.20;;;10.60;99.90;;;;;;5017615;28;20041;-90
2023/10/16 06:36:31;;;;;;;8.68;1.45;;;10.60;99.90;;;;;;5017584;28;20056;-90
2023/10/16 06:39:05;;;;;;;9.73;1.80;;;10.60;99.90;;;;;;5018217;28;20065;-89
2023/10/16 06:41:33;;;;;;;8.55;1.50;;;10.60;99.90;;;;;;5017546;28;20041;-90
2023/10/16 06:44:00;;;;;;;9.50;1.60;;;10.50;99.90;;;;;;5010481;28;20080;-86
2023/10/16 06:46:26;;;;;;;5.07;1.10;;;10.50;99.90;;;;;;5017974;28;20049;-88
2023/10/16 06:48:52;;;;;;;6.93;1.50;;;10.50;99.90;;;;;;4997183;28;20048;-84
2023/10/16 06:51:25;;;;;;;6.22;1.27;;;10.50;99.90;;;;;;5014959;28;20073;-84
2023/10/16 06:53:53;;;;;;;8.20;1.52;;;10.50;99.90;;;;;;4996829;28;20074;-85
2023/10/16 06:56:31;;;;;;;9.63;1.30;;;10.50;99.90;;;;;;4997066;28;20409;-88
2023/10/16 06:58:57;;;;;;;4.85;1.05;;;10.50;99.90;;;;;;4997216;28;20561;-86
2023/10/16 07:01:25;;;;;;;8.02;0.95;;;10.60;99.90;;;;;;4996690;28;20054;-86
2023/10/16 07:03:54;;;;;;;4.40;0.85;;;10.70;99.90;;;;;;4997221;28;20054;-88
2023/10/16 07:06:32;;;;;;;4.32;1.17;;;10.80;99.90;;;;;;4996893;28;20540;-88
2023/10/16 07:09:03;;;;;;;10.45;0.80;;;10.80;99.90;;;;;;4996850;28;20049;-89
2023/10/16 07:11:31;;;;;;;8.25;0.80;;;10.90;99.90;;;;;;4997007;28;20442;-85
2023/10/16 07:13:57;;;;;;;9.07;1.42;;;10.90;99.90;;;;;;4997033;28;20104;-79
2023/10/16 07:16:23;;;;;;;4.68;1.00;;;10.90;99.90;;;;;;4996952;28;20061;-87
2023/10/16 07:18:53;;;;;;;8.57;1.58;;;10.90;99.90;;;;;;4996895;28;20083;-86
2023/10/16 07:21:20;;;;;;;7.40;1.30;;;10.90;99.90;;;;;;4996841;28;20054;-85
2023/10/16 07:23:46;;;;;;;5.85;1.00;;;10.90;99.90;;;;;;5014350;28;20057;-91
2023/10/16 07:26:16;;;;;;;4.43;1.10;;;10.90;99.90;;;;;;4996576;28;20045;-91
2023/10/16 07:28:48;;;;;;;7.07;1.58;;;10.90;99.90;;;;;;4997101;28;20073;-89
2023/10/16 07:31:17;;;;;;;13.70;2.67;;;10.90;99.90;;;;;;4996220;28;20128;-91
2023/10/16 07:33:59;;;;;;;10.30;1.55;;;10.90;99.90;;;;;;5012105;28;20038;-91
2023/10/16 07:36:25;;;;;;;10.43;1.35;;;10.90;99.90;;;;;;4996846;28;20123;-85
2023/10/16 07:38:51;;;;;;;10.23;1.33;;;10.90;99.90;;;;;;4996596;28;20383;-84
2023/10/16 07:41:23;;;;;;;6.95;1.75;;;10.90;99.90;;;;;;4996710;28;20103;-86
2023/10/16 07:43:54;;;;;;;10.68;1.75;;;10.90;99.90;;;;;;4996191;28;20421;-85
2023/10/16 07:46:28;;;;;;;9.90;1.77;;;10.90;99.90;;;;;;4996539;28;20046;-86
2023/10/16 07:49:03;;;;;;;8.00;1.73;;;10.90;99.90;;;;;;4996263;28;20128;-87
2023/10/16 07:51:29;;;;;;;6.78;1.20;;;10.90;99.90;;;;;;5013940;28;20100;-87
2023/10/16 07:53:56;;;;;;;8.35;1.30;;;10.90;99.90;;;;;;4996120;28;20441;-87
2023/10/16 07:56:26;;;;;;;7.55;1.30;;;11.00;99.90;;;;;;5013517;28;20513;-88
2023/10/16 07:59:08;;;;;;;6.18;1.10;;;11.00;99.90;;;;;;4996029;28;20395;-87
2023/10/16 08:01:36;;;;;;;6.15;1.30;;;11.10;99.90;;;;;;4995842;28;20046;-88
2023/10/16 08:04:06;;;;;;;4.80;0.93;;;11.10;99.90;;;;;;4996015;28;20137;-87
2023/10/16 08:06:39;;;;;;;4.30;0.93;;;11.20;99.90;;;;;;4995789;28;20125;-86
2023/10/16 08:14:41;;;;;;;6.00;0.90;;;11.40;99.90;;;;;;4995850;28;20143;-84
2023/10/16 08:17:23;;;;;;;3.45;0.80;;;11.50;99.90;;;;;;5013265;28;20065;-85
2023/10/16 08:19:50;;;;;;;10.07;1.00;;;11.50;99.90;;;;;;4996077;28;20125;-86
2023/10/16 08:22:16;;;;;;;5.18;1.08;;;11.50;99.90;;;;;;4995976;28;20309;-86
2023/10/16 08:24:59;;;;;;;5.30;1.20;;;11.60;99.90;;;;;;4995940;28;20112;-86
2023/10/16 08:35:19;;;;;;;6.32;1.17;;;11.70;99.90;;;;;;4995677;28;20134;-86
2023/10/16 08:37:56;;;;;;;7.68;1.17;;;11.70;99.90;;;;;;4995866;28;20125;-85
2023/10/16 08:40:31;;;;;;;5.95;1.00;;;11.70;99.90;;;;;;4995945;28;20048;-87
2023/10/16 08:43:00;;;;;;;4.65;0.80;;;11.70;99.90;;;;;;4995712;28;20053;-85
2023/10/16 08:45:32;;;;;;;8.88;0.75;;;11.60;99.90;;;;;;5014201;28;20061;-84
2023/10/16 08:47:58;;;;;;;9.02;0.90;;;11.60;99.90;;;;;;4999404;28;20049;-84
2023/10/16 08:50:40;;;;;;;6.32;0.90;;;11.50;99.90;;;;;;4999609;28;20046;-86
2023/10/16 08:53:09;;;;;;;9.15;1.17;;;11.30;99.90;;;;;;4999396;28;20103;-86
2023/10/16 08:55:35;;;;;;;10.63;0.90;;;11.20;99.90;;;;;;4999346;28;20104;-86
2023/10/16 08:58:04;;;;;;;8.60;1.05;;;11.10;99.90;;;;;;5016952;28;20042;-86
2023/10/16 09:00:31;;;;;;;7.97;1.00;;;11.20;99.90;;;;;;4999198;28;20080;-86
2023/10/16 09:03:02;;;;;;;5.85;1.23;;;11.10;99.90;;;;;;5015343;28;20533;-84
2023/10/16 09:05:29;;;;;;;9.27;1.10;;;11.20;99.90;;;;;;4999084;28;20046;-84
2023/10/16 09:07:54;;;;;;;3.13;0.50;;;11.30;99.90;;;;;;4999066;28;20128;-83
2023/10/16 09:10:23;;;;;;;10.98;1.33;;;11.40;99.90;;;;;;4999067;28;20120;-85
2023/10/16 09:13:04;;;;;;;4.10;0.80;;;11.50;99.90;;;;;;4998579;28;20490;-84
2023/10/16 09:15:29;;;;;;;9.75;0.93;;;11.60;99.90;;;;;;5016585;28;20046;-84
2023/10/16 09:17:56;;;;;;;4.03;0.57;;;11.60;99.90;;;;;;5016771;28;20076;-85
2023/10/16 09:20:33;;;;;;;3.63;1.15;;;11.70;99.90;;;;;;5016619;28;20067;-88
2023/10/16 09:23:02;;;;;;;6.57;1.55;;;11.70;99.90;;;;;;4998888;28;20492;-88
2023/10/16 09:25:31;;;;;;;9.60;2.03;;;11.70;99.90;;;;;;4998837;28;20508;-93
2023/10/16 09:27:56;;;;;;;6.35;1.10;;;11.70;99.90;;;;;;5016179;28;20406;-86
2023/10/16 09:30:23;;;;;;;7.80;1.50;;;11.80;99.90;;;;;;4999331;28;20041;-84
2023/10/16 09:32:51;;;;;;;9.90;1.40;;;11.90;99.90;;;;;;5016617;28;20045;-85
2023/10/16 09:35:30;;;;;;;4.15;1.10;;;11.80;99.90;;;;;;4998993;28;20042;-85
2023/10/16 09:38:17;;;;;;;5.75;1.27;;;11.80;99.90;;;;;;4999038;28;20108;-84
2023/10/16 09:41:37;;;;;;;7.45;1.38;;;12.00;99.90;;;;;;5016563;28;20045;-91
2023/10/16 09:43:56;;;;;;;7.35;1.00;;;12.10;99.90;;;;;;4998849;28;20437;-88
2023/10/16 09:49:09;;;;;;;6.60;1.23;;;12.10;99.90;;;;;;5016424;28;20057;-87
2023/10/16 09:51:35;;;;;;;8.50;0.80;;;12.10;99.90;;;;;;4998786;28;20046;-92
2023/10/16 09:54:04;;;;;;;9.13;1.10;;;12.00;99.90;;;;;;5016088;28;20413;-87
2023/10/16 09:56:39;;;;;;;5.68;1.05;;;12.00;99.90;;;;;;4997765;28;20088;-86
2023/10/16 09:59:32;;;;;;;6.85;0.90;;;12.10;99.90;;;;;;5000053;28;20081;-89
2023/10/16 10:02:35;;;;;;;6.13;0.88;;;12.20;99.90;;;;;;4988821;28;20479;-92
2023/10/16 10:05:01;;;;;;;6.43;1.98;;;12.40;99.90;;;;;;4995496;28;20053;-91
2023/10/16 10:07:38;;;;;;;11.55;0.95;;;12.60;99.90;;;;;;4998696;28;20049;-89
2023/10/16 10:13:15;;;;;;;5.60;0.70;;;12.80;99.90;;;;;;5015866;28;20116;-85
2023/10/16 10:15:45;;;;;;;;;;;12.90;99.90;;;;;;4998751;28;20045;-87
2023/10/16 10:21:18;;;;;;;6.13;1.30;;;13.00;99.90;;;;;;4966857;28;20111;-90
2023/10/16 10:23:46;;;;;;;5.55;0.98;;;12.80;99.90;;;;;;4997983;28;20050;-89
2023/10/16 10:26:21;;;;;;;6.97;0.80;;;12.90;99.90;;;;;;4997962;28;20042;-90
2023/10/16 10:29:09;;;;;;;4.10;1.30;;;13.00;99.90;;;;;;4997831;28;20080;-90
2023/10/16 10:31:36;;;;;;;6.68;1.02;;;13.10;99.90;;;;;;4997629;28;20092;-92
2023/10/16 10:34:23;;;;;;;6.57;0.70;;;13.20;99.90;;;;;;4997685;28;20485;-89
2023/10/16 10:36:49;;;;;;;6.13;1.33;;;13.30;99.90;;;;;;4997730;28;20041;-90
2023/10/16 10:41:54;;;;;;;3.88;0.60;;;13.40;99.90;;;;;;4997827;28;20057;-92
2023/10/16 10:44:35;;;;;;;4.68;0.80;;;13.50;99.90;;;;;;4997700;28;20049;-88
2023/10/16 10:47:14;;;;;;;5.65;0.85;;;13.50;99.90;;;;;;4998115;28;20500;-92
2023/10/16 10:49:41;;;;;;;12.63;1.10;;;13.40;99.90;;;;;;4997759;28;20076;-91
2023/10/16 10:52:07;;;;;;;10.15;1.52;;;13.30;99.90;;;;;;4997361;28;20053;-92
2023/10/16 10:54:34;;;;;;;4.43;0.77;;;13.20;99.90;;;;;;4997535;28;20041;-92
2023/10/16 10:57:07;;;;;;;5.00;0.73;;;13.30;99.90;;;;;;4997785;28;20040;-86
2023/10/16 10:59:40;;;;;;;9.88;1.52;;;13.40;99.90;;;;;;4997258;28;20104;-87
2023/10/16 11:04:44;;;;;;;6.45;1.00;;;13.60;99.90;;;;;;4997104;28;20061;-89
2023/10/16 11:07:23;;;;;;;9.95;1.15;;;13.70;99.90;;;;;;4997398;28;20046;-85
2023/10/16 11:09:52;;;;;;;4.50;1.10;;;13.90;99.90;;;;;;5008918;28;20129;-83
2023/10/16 11:12:25;;;;;;;5.85;1.00;;;13.90;99.90;;;;;;5016380;28;20095;-85
2023/10/16 11:14:53;;;;;;;6.13;1.02;;;14.00;99.90;;;;;;5034548;28;20072;-88
2023/10/16 11:17:32;;;;;;;6.75;1.10;;;14.00;99.90;;;;;;5016480;28;20041;-85
2023/10/16 11:20:11;;;;;;;10.13;1.50;;;13.90;99.90;;;;;;5016480;28;20053;-87
2023/10/16 11:22:43;;;;;;;4.15;0.90;;;13.80;99.90;;;;;;5016552;28;20077;-85
2023/10/16 11:25:12;;;;;;;4.60;0.90;;;13.70;99.90;;;;;;5016626;28;20494;-86
2023/10/16 11:27:42;;;;;;;9.52;1.67;;;13.60;99.90;;;;;;5016303;28;20124;-86
2023/10/16 11:30:15;;;;;;;8.00;1.70;;;13.50;99.90;;;;;;5016598;28;20056;-88
2023/10/16 11:32:45;;;;;;;;;;;13.60;99.90;;;;;;5016649;28;20041;-86
2023/10/16 11:35:18;;;;;;;14.88;2.97;;;13.90;99.90;;;;;;5040715;28;19922;-86
2023/10/16 11:37:50;;;;;;;;;;;13.80;99.90;;;;;;5035861;28;20115;-88
2023/10/16 11:40:19;;;;;;;6.32;1.65;;;13.80;99.90;;;;;;5020375;28;20018;-87
2023/10/16 11:42:48;;;;;;;12.68;3.53;;;13.80;99.90;;;;;;5000389;28;20060;-96
2023/10/16 11:45:20;;;;;;;9.80;2.60;;;13.60;99.90;;;;;;5004371;28;20041;-85
2023/10/16 11:48:18;;;;;;;6.93;1.55;;;13.50;99.90;;;;;;5015903;28;20068;-90
2023/10/16 11:50:39;;;;;;;8.88;1.60;;;13.40;99.90;;;;;;5033910;28;20049;-88
2023/10/16 11:53:08;;;;;;;7.95;1.90;;;13.40;99.90;;;;;;5033485;28;20504;-86
2023/10/16 11:55:38;;;;;;;9.32;1.30;;;13.40;99.90;;;;;;5046059;28;20057;-85
2023/10/16 11:58:07;;;;;;;8.68;1.15;;;13.30;99.90;;;;;;5014403;28;20141;-87
2023/10/16 12:00:35;;;;;;;9.52;2.45;;;13.30;99.90;;;;;;5016019;28;20079;-86
2023/10/16 12:03:14;;;;;;;10.27;2.30;;;13.20;99.90;;;;;;5033343;28;20057;-86
2023/10/16 12:05:42;;;;;;;5.22;1.55;;;13.30;99.90;;;;;;5033844;28;20073;-86
2023/10/16 12:08:09;;;;;;;8.00;1.83;;;13.20;99.90;;;;;;5016720;28;20440;-85
2023/10/16 12:10:37;;;;;;;15.00;3.40;;;13.30;99.90;;;;;;5035336;28;20443;-86
2023/10/16 12:13:03;;;;;;;6.80;2.13;;;13.30;99.90;;;;;;5034315;28;20378;-89
2023/10/16 12:15:31;;;;;;;10.93;1.58;;;13.30;99.90;;;;;;5034579;28;20049;-91
2023/10/16 12:18:00;;;;;;;11.65;2.50;;;13.20;99.90;;;;;;5034966;28;20055;-91
2023/10/16 12:20:27;;;;;;;6.18;1.20;;;13.20;99.90;;;;;;5038095;28;20543;-89
2023/10/16 12:22:54;;;;;;;9.55;1.50;;;13.20;99.90;;;;;;5041767;28;20049;-90
2023/10/16 12:25:21;;;;;;;3.60;1.00;;;13.50;99.90;;;;;;5041927;28;20060;-92
2023/10/16 12:27:48;;;;;;;7.57;1.35;;;13.60;99.90;;;;;;5042110;28;20091;-87
2023/10/16 12:30:14;;;;;;;2.78;0.68;;;13.70;99.90;;;;;;5042072;28;20055;-86
2023/10/16 12:32:40;;;;;;;8.32;1.35;;;13.70;99.90;;;;;;5041818;28;20070;-85
2023/10/16 12:35:09;;;;;;;5.07;1.40;;;13.80;99.90;;;;;;5059929;28;20064;-88
2023/10/16 12:37:35;;;;;;;7.68;0.85;;;13.90;99.90;;;;;;5042086;28;20045;-84
2023/10/16 12:40:24;;;;;;;5.15;1.08;;;13.90;99.90;;;;;;5042025;28;20074;-86
2023/10/16 12:42:47;;;;;;;5.15;1.05;;;14.00;99.90;;;;;;5041033;28;20536;-85
2023/10/16 12:45:12;;;;;;;10.48;1.85;;;13.90;99.90;;;;;;5041680;28;20155;-85
2023/10/16 12:47:40;;;;;;;7.18;1.27;;;13.90;99.90;;;;;;5059864;28;20049;-86
2023/10/16 12:50:07;;;;;;;7.38;1.20;;;14.00;99.90;;;;;;5041645;28;20044;-85
2023/10/16 12:52:33;;;;;;;6.43;1.30;;;14.00;99.90;;;;;;5059787;28;20092;-85
2023/10/16 12:55:01;;;;;;;6.03;1.20;;;14.00;99.90;;;;;;5041735;28;20428;-85
2023/10/16 12:57:28;;;;;;;5.28;0.82;;;13.90;99.90;;;;;;5040430;28;20374;-82
2023/10/16 12:59:56;;;;;;;4.72;1.10;;;13.90;99.90;;;;;;5021706;28;20103;-85
2023/10/16 13:02:26;;;;;;;6.47;1.30;;;14.00;99.90;;;;;;5021740;28;20054;-85
2023/10/16 13:04:53;;;;;;;3.30;0.50;;;14.10;99.90;;;;;;5021770;28;20041;-85
2023/10/16 13:07:22;;;;;;;6.72;1.17;;;13.90;99.90;;;;;;5021482;28;20045;-84
2023/10/16 13:09:47;;;;;;;7.35;1.33;;;13.90;99.90;;;;;;5039203;28;20545;-86
2023/10/16 13:12:13;;;;;;;6.78;1.10;;;14.00;99.90;;;;;;5021794;28;20041;-85
2023/10/16 13:14:39;;;;;;;3.67;1.02;;;14.00;99.90;;;;;;5021509;28;20516;-84
2023/10/16 13:17:08;;;;;;;6.18;1.67;;;14.00;99.90;;;;;;5022083;28;20081;-85
2023/10/16 13:19:35;;;;;;;6.47;1.58;;;14.00;99.90;;;;;;5021729;28;20050;-87
2023/10/16 13:22:10;;;;;;;7.50;1.63;;;14.00;99.90;;;;;;5021499;28;20055;-87
2023/10/16 13:24:37;;;;;;;4.00;0.80;;;14.10;99.90;;;;;;5021571;28;20136;-86
2023/10/16 13:27:02;;;;;;;5.43;1.00;;;14.10;99.90;;;;;;5021820;28;20045;-86
2023/10/16 13:29:30;;;;;;;6.20;1.00;;;14.10;99.90;;;;;;5021314;28;20046;-84
2023/10/16 13:31:56;;;;;;;10.73;0.93;;;14.10;99.90;;;;;;5020071;28;20080;-84
2023/10/16 13:34:21;;;;;;;6.03;0.75;;;14.20;99.90;;;;;;5018359;28;20077;-84
2023/10/16 13:36:56;;;;;;;10.00;1.13;;;14.20;99.90;;;;;;5018420;28;20497;-85
2023/10/16 13:39:26;;;;;;;9.13;1.05;;;14.10;99.90;;;;;;5018422;28;20049;-85
2023/10/16 13:41:52;;;;;;;5.53;1.00;;;14.10;99.90;;;;;;5018291;28;20084;-85
2023/10/16 13:44:22;;;;;;;8.00;1.17;;;14.00;99.90;;;;;;5018508;28;20057;-85
2023/10/16 13:46:52;;;;;;;13.23;1.50;;;14.10;99.90;;;;;;5018255;28;20053;-84
2023/10/16 13:49:18;;;;;;;9.52;1.00;;;14.10;99.90;;;;;;5018356;28;20061;-84
2023/10/16 13:51:47;;;;;;;8.38;1.08;;;14.10;99.90;;;;;;5028716;28;20048;-85
2023/10/16 13:54:14;;;;;;;9.77;0.85;;;14.00;99.90;;;;;;5031115;28;20531;-82
2023/10/16 13:56:47;;;;;;;3.67;0.70;;;14.00;99.90;;;;;;4998050;22;20050;-83
2023/10/16 13:59:13;;;;;;;5.20;1.10;;;14.00;99.90;;;;;;4979371;28;20124;-83
2023/10/16 14:01:40;;;;;;;5.32;0.80;;;13.90;99.90;;;;;;4996017;28;20054;-83
2023/10/16 14:04:13;;;;;;;6.68;1.25;;;13.90;99.90;;;;;;4997015;28;20100;-89
2023/10/16 14:06:43;;;;;;;4.47;0.90;;;13.90;99.90;;;;;;4978943;28;20038;-92
2023/10/16 14:09:20;;;;;;;7.10;0.80;;;14.00;99.90;;;;;;4978772;28;20061;-89
2023/10/16 14:16:10;;;;;;;6.30;1.00;;;13.90;99.90;;;;;;5033764;28;20478;-88
2023/10/16 14:19:06;;;;;;;7.35;0.70;;;13.80;99.90;;;;;;5034113;28;20061;-88
2023/10/16 14:21:26;;;;;;;8.88;1.02;;;13.80;99.90;;;;;;5033513;28;20072;-88
2023/10/16 14:23:51;;;;;;;6.85;0.98;;;13.70;99.90;;;;;;5033953;28;20515;-88
2023/10/16 14:26:24;;;;;;;7.55;1.73;;;13.70;99.90;;;;;;5034035;28;20037;-90
2023/10/16 14:28:51;;;;;;;4.13;0.80;;;13.70;99.90;;;;;;5034049;28;20481;-85
2023/10/16 14:31:20;;;;;;;5.13;0.90;;;13.70;99.90;;;;;;5035061;28;20058;-89
2023/10/16 14:33:49;;;;;;;5.95;1.13;;;13.70;99.90;;;;;;5033868;28;20045;-88
2023/10/16 14:36:18;;;;;;;11.20;1.25;;;13.60;99.90;;;;;;5035321;28;20057;-89
2023/10/16 14:38:44;;;;;;;10.20;1.67;;;13.60;99.90;;;;;;5033939;28;20124;-85
2023/10/16 14:41:15;;;;;;;5.65;1.02;;;13.60;99.90;;;;;;5034842;28;20176;-85
2023/10/16 14:43:41;;;;;;;10.82;1.27;;;13.60;99.90;;;;;;5033111;28;20049;-89
2023/10/16 14:46:10;;;;;;;7.18;0.90;;;13.60;99.90;;;;;;5034086;28;20071;-87